Terminal Aerodrome Forecast
Issued by NWS

Home | Current Version | Previous Version | Text Only | Print | Product List | Glossary On
Versions: 1 2 3 4 5 6 7 8 9 10 11 12 13
000
FTUS42 TJSJ 021100 RRA
TAFJPS
TAF
TJPS 021144Z 0212/0312 06005KT P6SM FEW025 SCT060
     FM021430 13010KT P6SM VCSH FEW030 BKN060
     FM022230 06005KT P6SM FEW025
      AMD NOT SKED 0302/0311=

USA.gov is the U.S. government's official web portal to all federal, state and local government web resources and services.